sensor_id;sensor_type;location;lat;lon;timestamp;temperature;humidity
20284;DHT22;10301;50.832;4.080;2023-05-03T00:00:39;8.20;1.00
20284;DHT22;10301;50.832;4.080;2023-05-03T00:03:05;8.30;1.00
20284;DHT22;10301;50.832;4.080;2023-05-03T00:05:31;8.30;1.00
20284;DHT22;10301;50.832;4.080;2023-05-03T00:07:58;8.10;1.00
20284;DHT22;10301;50.832;4.080;2023-05-03T00:10:25;7.80;1.00
20284;DHT22;10301;50.832;4.080;2023-05-03T00:12:51;7.70;1.00
20284;DHT22;10301;50.832;4.080;2023-05-03T00:15:16;7.60;1.00
20284;DHT22;10301;50.832;4.080;2023-05-03T00:17:42;7.70;1.00
20284;DHT22;10301;50.832;4.080;2023-05-03T00:20:08;7.70;1.00
20284;DHT22;10301;50.832;4.080;2023-05-03T00:22:34;7.80;1.00
20284;DHT22;10301;50.832;4.080;2023-05-03T00:25:00;7.80;1.00
20284;DHT22;10301;50.832;4.080;2023-05-03T00:27:27;7.90;1.00
20284;DHT22;10301;50.832;4.080;2023-05-03T00:29:52;8.00;1.00
20284;DHT22;10301;50.832;4.080;2023-05-03T00:32:21;8.10;1.00
20284;DHT22;10301;50.832;4.080;2023-05-03T00:34:54;8.20;1.00
20284;DHT22;10301;50.832;4.080;2023-05-03T00:37:21;8.10;1.00
20284;DHT22;10301;50.832;4.080;2023-05-03T00:39:47;8.10;1.00
20284;DHT22;10301;50.832;4.080;2023-05-03T00:42:12;8.00;1.00
20284;DHT22;10301;50.832;4.080;2023-05-03T00:44:38;7.80;1.00
20284;DHT22;10301;50.832;4.080;2023-05-03T00:47:04;7.80;1.00
20284;DHT22;10301;50.832;4.080;2023-05-03T00:49:31;7.80;1.00
20284;DHT22;10301;50.832;4.080;2023-05-03T00:51:57;8.00;1.00
20284;DHT22;10301;50.832;4.080;2023-05-03T00:54:26;8.10;1.00
20284;DHT22;10301;50.832;4.080;2023-05-03T00:56:52;8.20;1.00
20284;DHT22;10301;50.832;4.080;2023-05-03T00:59:19;8.20;1.00
20284;DHT22;10301;50.832;4.080;2023-05-03T01:01:51;8.00;1.00
20284;DHT22;10301;50.832;4.080;2023-05-03T01:04:18;7.80;1.00
20284;DHT22;10301;50.832;4.080;2023-05-03T01:17:14;7.70;1.00
20284;DHT22;10301;50.832;4.080;2023-05-03T01:19:46;7.60;1.00
20284;DHT22;10301;50.832;4.080;2023-05-03T01:24:56;7.60;1.00
20284;DHT22;10301;50.832;4.080;2023-05-03T01:27:23;7.50;1.00
20284;DHT22;10301;50.832;4.080;2023-05-03T01:29:48;7.50;1.00
20284;DHT22;10301;50.832;4.080;2023-05-03T01:32:20;7.80;1.00
20284;DHT22;10301;50.832;4.080;2023-05-03T01:34:56;7.70;1.00
20284;DHT22;10301;50.832;4.080;2023-05-03T01:37:26;7.60;1.00
20284;DHT22;10301;50.832;4.080;2023-05-03T01:39:57;7.50;1.00
20284;DHT22;10301;50.832;4.080;2023-05-03T01:42:25;7.60;1.00
20284;DHT22;10301;50.832;4.080;2023-05-03T01:44:53;7.70;1.00
20284;DHT22;10301;50.832;4.080;2023-05-03T01:47:19;7.80;1.00
20284;DHT22;10301;50.832;4.080;2023-05-03T01:49:45;7.60;1.00
20284;DHT22;10301;50.832;4.080;2023-05-03T01:52:11;7.50;1.00
20284;DHT22;10301;50.832;4.080;2023-05-03T01:54:36;7.40;1.00
20284;DHT22;10301;50.832;4.080;2023-05-03T01:57:02;7.40;1.00
20284;DHT22;10301;50.832;4.080;2023-05-03T01:59:28;7.20;1.00
20284;DHT22;10301;50.832;4.080;2023-05-03T02:01:53;7.40;1.00
20284;DHT22;10301;50.832;4.080;2023-05-03T02:04:19;7.40;1.00
20284;DHT22;10301;50.832;4.080;2023-05-03T02:06:45;7.30;1.00
20284;DHT22;10301;50.832;4.080;2023-05-03T02:09:11;7.40;1.00
20284;DHT22;10301;50.832;4.080;2023-05-03T02:11:36;7.30;1.00
20284;DHT22;10301;50.832;4.080;2023-05-03T02:14:02;7.30;1.00
20284;DHT22;10301;50.832;4.080;2023-05-03T02:16:28;7.20;1.00
20284;DHT22;10301;50.832;4.080;2023-05-03T02:18:54;7.10;1.00
20284;DHT22;10301;50.832;4.080;2023-05-03T02:21:24;7.00;1.00
20284;DHT22;10301;50.832;4.080;2023-05-03T02:23:50;7.00;1.00
20284;DHT22;10301;50.832;4.080;2023-05-03T02:26:16;7.10;1.00
20284;DHT22;10301;50.832;4.080;2023-05-03T02:28:41;7.30;1.00
20284;DHT22;10301;50.832;4.080;2023-05-03T02:31:07;7.10;1.00
20284;DHT22;10301;50.832;4.080;2023-05-03T02:33:33;7.00;1.00
20284;DHT22;10301;50.832;4.080;2023-05-03T02:35:59;7.10;1.00
20284;DHT22;10301;50.832;4.080;2023-05-03T02:38:25;7.00;1.00
20284;DHT22;10301;50.832;4.080;2023-05-03T02:40:50;6.80;1.00
20284;DHT22;10301;50.832;4.080;2023-05-03T02:43:16;6.80;1.00
20284;DHT22;10301;50.832;4.080;2023-05-03T02:45:42;6.80;1.00
20284;DHT22;10301;50.832;4.080;2023-05-03T02:48:08;6.70;1.00
20284;DHT22;10301;50.832;4.080;2023-05-03T02:50:35;6.80;1.00
20284;DHT22;10301;50.832;4.080;2023-05-03T02:53:00;6.80;1.00
20284;DHT22;10301;50.832;4.080;2023-05-03T02:55:26;6.80;1.00
20284;DHT22;10301;50.832;4.080;2023-05-03T02:57:52;6.80;1.00
20284;DHT22;10301;50.832;4.080;2023-05-03T03:00:18;6.60;1.00
20284;DHT22;10301;50.832;4.080;2023-05-03T03:02:43;6.50;1.00
20284;DHT22;10301;50.832;4.080;2023-05-03T03:05:09;6.60;1.00
20284;DHT22;10301;50.832;4.080;2023-05-03T03:07:36;6.60;1.00
20284;DHT22;10301;50.832;4.080;2023-05-03T03:10:03;6.50;1.00
20284;DHT22;10301;50.832;4.080;2023-05-03T03:12:29;6.40;1.00
20284;DHT22;10301;50.832;4.080;2023-05-03T03:14:55;6.40;1.00
20284;DHT22;10301;50.832;4.080;2023-05-03T03:17:20;6.50;1.00
20284;DHT22;10301;50.832;4.080;2023-05-03T03:19:47;6.80;1.00
20284;DHT22;10301;50.832;4.080;2023-05-03T03:22:12;6.80;1.00
20284;DHT22;10301;50.832;4.080;2023-05-03T03:24:38;6.80;1.00
20284;DHT22;10301;50.832;4.080;2023-05-03T03:27:04;6.80;1.00
20284;DHT22;10301;50.832;4.080;2023-05-03T03:29:31;6.80;1.00
20284;DHT22;10301;50.832;4.080;2023-05-03T03:31:57;6.80;1.00
20284;DHT22;10301;50.832;4.080;2023-05-03T03:34:23;6.90;1.00
20284;DHT22;10301;50.832;4.080;2023-05-03T03:36:48;6.90;1.00
20284;DHT22;10301;50.832;4.080;2023-05-03T03:39:14;6.60;1.00
20284;DHT22;10301;50.832;4.080;2023-05-03T03:41:40;6.60;1.00
20284;DHT22;10301;50.832;4.080;2023-05-03T03:44:06;6.70;1.00
20284;DHT22;10301;50.832;4.080;2023-05-03T03:46:33;6.60;1.00
20284;DHT22;10301;50.832;4.080;2023-05-03T03:48:58;6.40;1.00
20284;DHT22;10301;50.832;4.080;2023-05-03T03:51:24;6.20;1.00
20284;DHT22;10301;50.832;4.080;2023-05-03T03:53:51;6.40;1.00
20284;DHT22;10301;50.832;4.080;2023-05-03T03:56:17;6.50;1.00
20284;DHT22;10301;50.832;4.080;2023-05-03T03:58:42;6.70;1.00
20284;DHT22;10301;50.832;4.080;2023-05-03T04:01:08;6.70;1.00
20284;DHT22;10301;50.832;4.080;2023-05-03T04:03:34;6.80;1.00
20284;DHT22;10301;50.832;4.080;2023-05-03T04:06:00;6.90;1.00
20284;DHT22;10301;50.832;4.080;2023-05-03T04:08:25;6.80;1.00
20284;DHT22;10301;50.832;4.080;2023-05-03T04:10:51;6.70;1.00
20284;DHT22;10301;50.832;4.080;2023-05-03T04:13:17;6.80;1.00
20284;DHT22;10301;50.832;4.080;2023-05-03T04:15:43;6.90;1.00
20284;DHT22;10301;50.832;4.080;2023-05-03T04:18:08;6.80;1.00
20284;DHT22;10301;50.832;4.080;2023-05-03T04:20:34;6.70;1.00
20284;DHT22;10301;50.832;4.080;2023-05-03T04:23:01;6.50;1.00
20284;DHT22;10301;50.832;4.080;2023-05-03T04:25:26;6.40;1.00
20284;DHT22;10301;50.832;4.080;2023-05-03T04:27:52;6.40;1.00
20284;DHT22;10301;50.832;4.080;2023-05-03T04:30:18;6.50;1.00
20284;DHT22;10301;50.832;4.080;2023-05-03T04:32:44;6.30;1.00
20284;DHT22;10301;50.832;4.080;2023-05-03T04:35:11;6.30;1.00
20284;DHT22;10301;50.832;4.080;2023-05-03T04:37:41;6.30;1.00
20284;DHT22;10301;50.832;4.080;2023-05-03T04:40:07;6.50;1.00
20284;DHT22;10301;50.832;4.080;2023-05-03T04:42:37;6.60;1.00
20284;DHT22;10301;50.832;4.080;2023-05-03T04:45:03;6.60;1.00
20284;DHT22;10301;50.832;4.080;2023-05-03T04:47:29;6.60;1.00
20284;DHT22;10301;50.832;4.080;2023-05-03T04:49:55;6.70;1.00
20284;DHT22;10301;50.832;4.080;2023-05-03T04:52:21;6.70;1.00
20284;DHT22;10301;50.832;4.080;2023-05-03T04:54:46;6.70;1.00
20284;DHT22;10301;50.832;4.080;2023-05-03T04:57:12;6.90;1.00
20284;DHT22;10301;50.832;4.080;2023-05-03T04:59:38;6.90;1.00
20284;DHT22;10301;50.832;4.080;2023-05-03T05:02:03;6.80;1.00
20284;DHT22;10301;50.832;4.080;2023-05-03T05:04:29;6.60;1.00
20284;DHT22;10301;50.832;4.080;2023-05-03T05:06:55;6.80;1.00
20284;DHT22;10301;50.832;4.080;2023-05-03T05:09:25;6.80;1.00
20284;DHT22;10301;50.832;4.080;2023-05-03T05:11:52;7.00;1.00
20284;DHT22;10301;50.832;4.080;2023-05-03T05:14:18;7.00;1.00
20284;DHT22;10301;50.832;4.080;2023-05-03T05:16:44;7.10;1.00
20284;DHT22;10301;50.832;4.080;2023-05-03T05:19:10;7.30;1.00
20284;DHT22;10301;50.832;4.080;2023-05-03T05:21:36;7.50;1.00
20284;DHT22;10301;50.832;4.080;2023-05-03T05:24:02;7.60;1.00
20284;DHT22;10301;50.832;4.080;2023-05-03T05:26:28;7.50;1.00
20284;DHT22;10301;50.832;4.080;2023-05-03T05:28:54;7.60;1.00
20284;DHT22;10301;50.832;4.080;2023-05-03T05:31:20;7.40;1.00
20284;DHT22;10301;50.832;4.080;2023-05-03T05:33:46;7.40;1.00
20284;DHT22;10301;50.832;4.080;2023-05-03T05:36:13;7.50;1.00
20284;DHT22;10301;50.832;4.080;2023-05-03T05:38:39;7.40;1.00
20284;DHT22;10301;50.832;4.080;2023-05-03T05:41:05;7.60;1.00
20284;DHT22;10301;50.832;4.080;2023-05-03T05:43:31;7.80;1.00
20284;DHT22;10301;50.832;4.080;2023-05-03T05:45:57;7.90;1.00
20284;DHT22;10301;50.832;4.080;2023-05-03T05:48:23;7.70;1.00
20284;DHT22;10301;50.832;4.080;2023-05-03T05:50:48;7.80;1.00
20284;DHT22;10301;50.832;4.080;2023-05-03T05:53:14;7.70;1.00
20284;DHT22;10301;50.832;4.080;2023-05-03T05:55:40;7.70;1.00
20284;DHT22;10301;50.832;4.080;2023-05-03T05:58:05;7.90;1.00
20284;DHT22;10301;50.832;4.080;2023-05-03T06:00:31;7.70;1.00
20284;DHT22;10301;50.832;4.080;2023-05-03T06:02:57;7.70;1.00
20284;DHT22;10301;50.832;4.080;2023-05-03T06:05:22;7.70;1.00
20284;DHT22;10301;50.832;4.080;2023-05-03T06:07:48;7.80;1.00
20284;DHT22;10301;50.832;4.080;2023-05-03T06:10:14;7.90;1.00
20284;DHT22;10301;50.832;4.080;2023-05-03T06:12:40;7.80;1.00
20284;DHT22;10301;50.832;4.080;2023-05-03T06:15:06;7.90;1.00
20284;DHT22;10301;50.832;4.080;2023-05-03T06:17:33;8.20;1.00
20284;DHT22;10301;50.832;4.080;2023-05-03T06:19:59;8.30;1.00
20284;DHT22;10301;50.832;4.080;2023-05-03T06:22:24;8.10;1.00
20284;DHT22;10301;50.832;4.080;2023-05-03T06:24:50;8.20;1.00
20284;DHT22;10301;50.832;4.080;2023-05-03T06:27:16;8.30;1.00
20284;DHT22;10301;50.832;4.080;2023-05-03T06:29:42;8.60;1.00
20284;DHT22;10301;50.832;4.080;2023-05-03T06:32:11;8.70;1.00
20284;DHT22;10301;50.832;4.080;2023-05-03T06:34:37;8.90;1.00
20284;DHT22;10301;50.832;4.080;2023-05-03T06:37:02;9.10;1.00
20284;DHT22;10301;50.832;4.080;2023-05-03T06:39:28;9.30;1.00
20284;DHT22;10301;50.832;4.080;2023-05-03T06:41:54;9.30;1.00
20284;DHT22;10301;50.832;4.080;2023-05-03T06:44:19;9.40;1.00
20284;DHT22;10301;50.832;4.080;2023-05-03T06:46:45;9.40;1.00
20284;DHT22;10301;50.832;4.080;2023-05-03T06:49:11;9.60;1.00
20284;DHT22;10301;50.832;4.080;2023-05-03T06:51:36;9.70;1.00
20284;DHT22;10301;50.832;4.080;2023-05-03T06:54:02;9.60;1.00
20284;DHT22;10301;50.832;4.080;2023-05-03T06:56:36;9.60;1.00
20284;DHT22;10301;50.832;4.080;2023-05-03T06:59:02;9.80;1.00
20284;DHT22;10301;50.832;4.080;2023-05-03T07:01:29;9.90;1.00
20284;DHT22;10301;50.832;4.080;2023-05-03T07:03:55;10.00;1.00
20284;DHT22;10301;50.832;4.080;2023-05-03T07:06:21;10.20;1.00
20284;DHT22;10301;50.832;4.080;2023-05-03T07:08:50;10.30;99.90
20284;DHT22;10301;50.832;4.080;2023-05-03T07:11:18;10.30;99.90
20284;DHT22;10301;50.832;4.080;2023-05-03T07:13:46;10.50;99.90
20284;DHT22;10301;50.832;4.080;2023-05-03T07:16:12;10.50;99.90
20284;DHT22;10301;50.832;4.080;2023-05-03T07:18:39;10.50;99.90
20284;DHT22;10301;50.832;4.080;2023-05-03T07:21:04;10.30;99.90
20284;DHT22;10301;50.832;4.080;2023-05-03T07:23:31;10.50;99.90
20284;DHT22;10301;50.832;4.080;2023-05-03T07:25:56;10.30;99.90
20284;DHT22;10301;50.832;4.080;2023-05-03T07:28:22;10.20;99.90
20284;DHT22;10301;50.832;4.080;2023-05-03T07:30:48;10.10;1.00
20284;DHT22;10301;50.832;4.080;2023-05-03T07:33:15;10.30;1.00
20284;DHT22;10301;50.832;4.080;2023-05-03T07:35:40;10.50;99.90
20284;DHT22;10301;50.832;4.080;2023-05-03T07:38:06;10.60;99.90
20284;DHT22;10301;50.832;4.080;2023-05-03T07:40:32;10.70;99.90
20284;DHT22;10301;50.832;4.080;2023-05-03T07:42:59;10.70;99.90
20284;DHT22;10301;50.832;4.080;2023-05-03T07:45:26;10.50;99.90
20284;DHT22;10301;50.832;4.080;2023-05-03T07:47:52;10.40;99.90
20284;DHT22;10301;50.832;4.080;2023-05-03T07:50:18;10.30;99.90
20284;DHT22;10301;50.832;4.080;2023-05-03T07:52:44;10.30;99.90
20284;DHT22;10301;50.832;4.080;2023-05-03T07:55:09;10.60;99.90
20284;DHT22;10301;50.832;4.080;2023-05-03T07:57:35;10.60;99.90
20284;DHT22;10301;50.832;4.080;2023-05-03T08:00:02;11.00;1.00
20284;DHT22;10301;50.832;4.080;2023-05-03T08:02:28;11.20;1.00
20284;DHT22;10301;50.832;4.080;2023-05-03T08:04:54;11.10;99.90
20284;DHT22;10301;50.832;4.080;2023-05-03T08:07:20;11.00;1.00
20284;DHT22;10301;50.832;4.080;2023-05-03T08:09:46;10.90;1.00
20284;DHT22;10301;50.832;4.080;2023-05-03T08:12:13;11.10;1.00
20284;DHT22;10301;50.832;4.080;2023-05-03T08:14:38;11.30;1.00
20284;DHT22;10301;50.832;4.080;2023-05-03T08:17:05;11.60;1.00
20284;DHT22;10301;50.832;4.080;2023-05-03T08:19:31;11.70;1.00
20284;DHT22;10301;50.832;4.080;2023-05-03T08:21:56;11.50;42.60
20284;DHT22;10301;50.832;4.080;2023-05-03T08:24:22;11.60;99.90
20284;DHT22;10301;50.832;4.080;2023-05-03T08:26:49;11.70;99.90
20284;DHT22;10301;50.832;4.080;2023-05-03T08:29:15;11.70;99.90
20284;DHT22;10301;50.832;4.080;2023-05-03T08:31:41;11.70;1.00
20284;DHT22;10301;50.832;4.080;2023-05-03T08:34:07;11.80;99.90
20284;DHT22;10301;50.832;4.080;2023-05-03T08:36:35;11.90;15.50
20284;DHT22;10301;50.832;4.080;2023-05-03T08:39:03;11.90;1.00
20284;DHT22;10301;50.832;4.080;2023-05-03T08:41:32;11.60;1.00
20284;DHT22;10301;50.832;4.080;2023-05-03T08:43:59;11.50;1.00
20284;DHT22;10301;50.832;4.080;2023-05-03T08:46:26;11.70;27.00
20284;DHT22;10301;50.832;4.080;2023-05-03T08:48:53;11.80;1.00
20284;DHT22;10301;50.832;4.080;2023-05-03T08:51:21;11.90;1.00
20284;DHT22;10301;50.832;4.080;2023-05-03T08:53:47;12.20;99.90
20284;DHT22;10301;50.832;4.080;2023-05-03T08:56:28;12.30;1.00
20284;DHT22;10301;50.832;4.080;2023-05-03T08:58:55;12.40;1.00
20284;DHT22;10301;50.832;4.080;2023-05-03T09:01:20;12.60;99.90
20284;DHT22;10301;50.832;4.080;2023-05-03T09:03:50;12.60;1.00
20284;DHT22;10301;50.832;4.080;2023-05-03T09:06:21;12.70;99.90
20284;DHT22;10301;50.832;4.080;2023-05-03T09:08:50;12.90;1.00
20284;DHT22;10301;50.832;4.080;2023-05-03T09:11:23;13.10;1.00
20284;DHT22;10301;50.832;4.080;2023-05-03T09:13:52;13.20;1.00
20284;DHT22;10301;50.832;4.080;2023-05-03T09:16:23;13.50;1.00
20284;DHT22;10301;50.832;4.080;2023-05-03T09:18:59;13.50;99.90
20284;DHT22;10301;50.832;4.080;2023-05-03T09:21:26;13.60;99.90
20284;DHT22;10301;50.832;4.080;2023-05-03T09:23:51;13.60;1.00
20284;DHT22;10301;50.832;4.080;2023-05-03T09:26:31;13.60;1.00
20284;DHT22;10301;50.832;4.080;2023-05-03T09:29:01;13.60;99.90
20284;DHT22;10301;50.832;4.080;2023-05-03T09:31:32;13.30;99.90
20284;DHT22;10301;50.832;4.080;2023-05-03T09:33:58;13.30;1.00
20284;DHT22;10301;50.832;4.080;2023-05-03T09:36:25;13.40;99.90
20284;DHT22;10301;50.832;4.080;2023-05-03T09:38:53;13.50;1.00
20284;DHT22;10301;50.832;4.080;2023-05-03T09:41:27;13.60;99.90
20284;DHT22;10301;50.832;4.080;2023-05-03T09:43:53;13.60;99.90
20284;DHT22;10301;50.832;4.080;2023-05-03T09:46:21;13.80;1.00
20284;DHT22;10301;50.832;4.080;2023-05-03T09:48:49;13.60;1.00
20284;DHT22;10301;50.832;4.080;2023-05-03T09:51:15;13.70;1.00
20284;DHT22;10301;50.832;4.080;2023-05-03T09:53:41;13.80;99.90
20284;DHT22;10301;50.832;4.080;2023-05-03T09:56:10;13.90;1.00
20284;DHT22;10301;50.832;4.080;2023-05-03T09:58:37;13.90;1.00
20284;DHT22;10301;50.832;4.080;2023-05-03T10:01:04;14.00;1.00
20284;DHT22;10301;50.832;4.080;2023-05-03T10:03:47;14.20;1.00
20284;DHT22;10301;50.832;4.080;2023-05-03T10:06:29;14.20;99.90
20284;DHT22;10301;50.832;4.080;2023-05-03T10:09:02;14.00;99.90
20284;DHT22;10301;50.832;4.080;2023-05-03T10:11:33;14.00;99.90
20284;DHT22;10301;50.832;4.080;2023-05-03T10:13:59;14.10;99.90
20284;DHT22;10301;50.832;4.080;2023-05-03T10:16:29;14.20;99.90
20284;DHT22;10301;50.832;4.080;2023-05-03T10:19:26;14.40;99.90
20284;DHT22;10301;50.832;4.080;2023-05-03T10:22:06;14.70;99.90
20284;DHT22;10301;50.832;4.080;2023-05-03T10:24:37;14.80;97.90
20284;DHT22;10301;50.832;4.080;2023-05-03T10:27:06;14.60;1.00
20284;DHT22;10301;50.832;4.080;2023-05-03T10:32:02;14.40;1.00
20284;DHT22;10301;50.832;4.080;2023-05-03T10:34:35;14.40;1.00
20284;DHT22;10301;50.832;4.080;2023-05-03T10:37:09;14.60;1.00
20284;DHT22;10301;50.832;4.080;2023-05-03T10:39:35;14.50;1.00
20284;DHT22;10301;50.832;4.080;2023-05-03T10:42:03;14.60;1.00
20284;DHT22;10301;50.832;4.080;2023-05-03T10:44:39;14.60;1.00
20284;DHT22;10301;50.832;4.080;2023-05-03T10:47:12;14.70;1.00
20284;DHT22;10301;50.832;4.080;2023-05-03T10:49:39;14.90;1.00
20284;DHT22;10301;50.832;4.080;2023-05-03T10:55:11;14.80;1.00
20284;DHT22;10301;50.832;4.080;2023-05-03T10:57:39;15.10;1.00
20284;DHT22;10301;50.832;4.080;2023-05-03T11:00:37;15.00;1.00
20284;DHT22;10301;50.832;4.080;2023-05-03T11:05:37;15.30;1.00
20284;DHT22;10301;50.832;4.080;2023-05-03T11:08:22;15.30;1.00
20284;DHT22;10301;50.832;4.080;2023-05-03T11:10:57;15.20;1.00
20284;DHT22;10301;50.832;4.080;2023-05-03T11:13:24;15.20;1.00
20284;DHT22;10301;50.832;4.080;2023-05-03T11:15:52;15.20;1.00
20284;DHT22;10301;50.832;4.080;2023-05-03T11:18:18;15.30;1.00
20284;DHT22;10301;50.832;4.080;2023-05-03T11:20:44;15.00;1.00
20284;DHT22;10301;50.832;4.080;2023-05-03T11:23:11;15.10;1.00
20284;DHT22;10301;50.832;4.080;2023-05-03T11:25:36;15.00;30.90
20284;DHT22;10301;50.832;4.080;2023-05-03T11:28:03;15.10;1.00
20284;DHT22;10301;50.832;4.080;2023-05-03T11:30:32;15.30;1.00
20284;DHT22;10301;50.832;4.080;2023-05-03T11:32:58;15.60;1.00
20284;DHT22;10301;50.832;4.080;2023-05-03T11:35:24;15.30;1.00
20284;DHT22;10301;50.832;4.080;2023-05-03T11:37:52;15.70;1.00
20284;DHT22;10301;50.832;4.080;2023-05-03T11:40:19;16.20;1.00
20284;DHT22;10301;50.832;4.080;2023-05-03T11:42:55;16.00;99.90
20284;DHT22;10301;50.832;4.080;2023-05-03T11:45:38;15.60;99.90
20284;DHT22;10301;50.832;4.080;2023-05-03T11:48:05;15.70;1.00
20284;DHT22;10301;50.832;4.080;2023-05-03T11:50:45;15.80;1.00
20284;DHT22;10301;50.832;4.080;2023-05-03T11:53:14;15.40;1.00
20284;DHT22;10301;50.832;4.080;2023-05-03T11:55:42;15.40;1.00
20284;DHT22;10301;50.832;4.080;2023-05-03T11:58:18;15.10;1.00
20284;DHT22;10301;50.832;4.080;2023-05-03T12:00:49;15.30;1.00
20284;DHT22;10301;50.832;4.080;2023-05-03T12:03:26;15.40;1.00
20284;DHT22;10301;50.832;4.080;2023-05-03T12:05:53;15.30;1.00
20284;DHT22;10301;50.832;4.080;2023-05-03T12:08:20;15.40;1.00
20284;DHT22;10301;50.832;4.080;2023-05-03T12:10:49;15.60;1.00
20284;DHT22;10301;50.832;4.080;2023-05-03T12:13:26;15.60;99.90
20284;DHT22;10301;50.832;4.080;2023-05-03T12:15:57;15.80;1.00
20284;DHT22;10301;50.832;4.080;2023-05-03T12:18:26;15.80;99.90
20284;DHT22;10301;50.832;4.080;2023-05-03T12:20:56;16.00;99.90
20284;DHT22;10301;50.832;4.080;2023-05-03T12:23:25;16.00;99.90
20284;DHT22;10301;50.832;4.080;2023-05-03T12:25:51;16.00;99.90
20284;DHT22;10301;50.832;4.080;2023-05-03T12:28:18;16.00;1.00
20284;DHT22;10301;50.832;4.080;2023-05-03T12:30:44;16.10;99.90
20284;DHT22;10301;50.832;4.080;2023-05-03T12:33:10;16.10;99.90
20284;DHT22;10301;50.832;4.080;2023-05-03T12:35:36;16.00;99.90
20284;DHT22;10301;50.832;4.080;2023-05-03T12:38:02;16.30;99.90
20284;DHT22;10301;50.832;4.080;2023-05-03T12:40:29;16.50;99.90
20284;DHT22;10301;50.832;4.080;2023-05-03T12:42:55;16.80;59.00
20284;DHT22;10301;50.832;4.080;2023-05-03T12:45:21;17.00;1.00
20284;DHT22;10301;50.832;4.080;2023-05-03T12:47:47;17.20;1.00
20284;DHT22;10301;50.832;4.080;2023-05-03T12:50:12;17.30;1.00
20284;DHT22;10301;50.832;4.080;2023-05-03T12:52:38;17.20;1.00
20284;DHT22;10301;50.832;4.080;2023-05-03T12:55:04;17.00;1.00
20284;DHT22;10301;50.832;4.080;2023-05-03T12:57:31;16.90;55.80
20284;DHT22;10301;50.832;4.080;2023-05-03T12:59:56;16.90;24.10
20284;DHT22;10301;50.832;4.080;2023-05-03T13:02:22;17.00;1.00
20284;DHT22;10301;50.832;4.080;2023-05-03T13:04:48;17.00;41.00
20284;DHT22;10301;50.832;4.080;2023-05-03T13:07:24;17.10;1.00
20284;DHT22;10301;50.832;4.080;2023-05-03T13:09:53;17.10;33.30
20284;DHT22;10301;50.832;4.080;2023-05-03T13:12:19;16.90;12.70
20284;DHT22;10301;50.832;4.080;2023-05-03T13:14:47;16.50;70.50
20284;DHT22;10301;50.832;4.080;2023-05-03T13:17:13;16.50;99.90
20284;DHT22;10301;50.832;4.080;2023-05-03T13:19:45;16.70;2.30
20284;DHT22;10301;50.832;4.080;2023-05-03T13:22:12;16.70;20.10
20284;DHT22;10301;50.832;4.080;2023-05-03T13:24:39;16.90;71.00
20284;DHT22;10301;50.832;4.080;2023-05-03T13:27:04;16.80;1.00
20284;DHT22;10301;50.832;4.080;2023-05-03T13:29:30;17.00;99.90
20284;DHT22;10301;50.832;4.080;2023-05-03T13:31:56;17.00;1.00
20284;DHT22;10301;50.832;4.080;2023-05-03T13:34:22;17.10;3.40
20284;DHT22;10301;50.832;4.080;2023-05-03T13:36:47;17.00;1.00
20284;DHT22;10301;50.832;4.080;2023-05-03T13:39:13;16.80;1.00
20284;DHT22;10301;50.832;4.080;2023-05-03T13:41:40;16.90;1.00
20284;DHT22;10301;50.832;4.080;2023-05-03T13:44:08;17.10;1.00
20284;DHT22;10301;50.832;4.080;2023-05-03T13:46:35;16.90;1.00
20284;DHT22;10301;50.832;4.080;2023-05-03T13:49:02;16.90;1.00
20284;DHT22;10301;50.832;4.080;2023-05-03T13:51:30;16.90;1.00
20284;DHT22;10301;50.832;4.080;2023-05-03T13:53:58;17.30;1.00
20284;DHT22;10301;50.832;4.080;2023-05-03T13:56:24;17.20;1.00
20284;DHT22;10301;50.832;4.080;2023-05-03T13:58:50;17.10;1.00
20284;DHT22;10301;50.832;4.080;2023-05-03T14:01:15;17.20;1.00
20284;DHT22;10301;50.832;4.080;2023-05-03T14:03:42;17.40;1.00
20284;DHT22;10301;50.832;4.080;2023-05-03T14:06:09;17.40;1.00
20284;DHT22;10301;50.832;4.080;2023-05-03T14:08:35;17.70;1.00
20284;DHT22;10301;50.832;4.080;2023-05-03T14:11:01;17.80;1.00
20284;DHT22;10301;50.832;4.080;2023-05-03T14:13:27;17.50;1.00
20284;DHT22;10301;50.832;4.080;2023-05-03T14:15:53;17.50;1.00
20284;DHT22;10301;50.832;4.080;2023-05-03T14:18:19;17.30;1.00
20284;DHT22;10301;50.832;4.080;2023-05-03T14:20:45;17.50;1.00
20284;DHT22;10301;50.832;4.080;2023-05-03T14:23:15;17.70;1.00
20284;DHT22;10301;50.832;4.080;2023-05-03T14:25:41;17.80;1.00
20284;DHT22;10301;50.832;4.080;2023-05-03T14:28:07;17.70;1.00
20284;DHT22;10301;50.832;4.080;2023-05-03T14:30:33;17.70;1.00
20284;DHT22;10301;50.832;4.080;2023-05-03T14:32:59;17.70;1.00
20284;DHT22;10301;50.832;4.080;2023-05-03T14:35:25;17.80;1.00
20284;DHT22;10301;50.832;4.080;2023-05-03T14:37:51;17.80;1.00
20284;DHT22;10301;50.832;4.080;2023-05-03T14:40:17;17.90;1.00
20284;DHT22;10301;50.832;4.080;2023-05-03T14:42:43;17.80;1.00
20284;DHT22;10301;50.832;4.080;2023-05-03T14:45:09;17.60;1.00
20284;DHT22;10301;50.832;4.080;2023-05-03T14:47:36;17.50;1.00
20284;DHT22;10301;50.832;4.080;2023-05-03T14:50:02;17.60;1.00
20284;DHT22;10301;50.832;4.080;2023-05-03T14:52:28;17.80;1.00
20284;DHT22;10301;50.832;4.080;2023-05-03T14:54:54;17.90;1.00
20284;DHT22;10301;50.832;4.080;2023-05-03T14:57:19;18.00;1.00
20284;DHT22;10301;50.832;4.080;2023-05-03T14:59:46;17.90;1.00
20284;DHT22;10301;50.832;4.080;2023-05-03T15:02:12;18.00;1.00
20284;DHT22;10301;50.832;4.080;2023-05-03T15:04:37;18.20;1.00
20284;DHT22;10301;50.832;4.080;2023-05-03T15:07:03;18.20;1.00
20284;DHT22;10301;50.832;4.080;2023-05-03T15:09:30;18.10;1.00
20284;DHT22;10301;50.832;4.080;2023-05-03T15:11:56;18.20;1.00
20284;DHT22;10301;50.832;4.080;2023-05-03T15:14:21;18.20;1.00
20284;DHT22;10301;50.832;4.080;2023-05-03T15:16:47;18.10;1.00
20284;DHT22;10301;50.832;4.080;2023-05-03T15:19:13;18.10;1.00
20284;DHT22;10301;50.832;4.080;2023-05-03T15:21:46;18.30;1.00
20284;DHT22;10301;50.832;4.080;2023-05-03T15:24:12;18.30;1.00
20284;DHT22;10301;50.832;4.080;2023-05-03T15:26:37;18.40;1.00
20284;DHT22;10301;50.832;4.080;2023-05-03T15:29:03;18.40;1.00
20284;DHT22;10301;50.832;4.080;2023-05-03T15:31:29;18.50;1.00
20284;DHT22;10301;50.832;4.080;2023-05-03T15:33:54;18.50;1.00
20284;DHT22;10301;50.832;4.080;2023-05-03T15:36:20;18.30;1.00
20284;DHT22;10301;50.832;4.080;2023-05-03T15:38:46;18.20;1.00
20284;DHT22;10301;50.832;4.080;2023-05-03T15:41:12;18.30;1.00
20284;DHT22;10301;50.832;4.080;2023-05-03T15:43:38;18.40;1.00
20284;DHT22;10301;50.832;4.080;2023-05-03T15:46:04;18.20;1.00
20284;DHT22;10301;50.832;4.080;2023-05-03T15:48:30;17.90;1.00
20284;DHT22;10301;50.832;4.080;2023-05-03T15:50:55;17.90;1.00
20284;DHT22;10301;50.832;4.080;2023-05-03T15:53:21;18.10;1.00
20284;DHT22;10301;50.832;4.080;2023-05-03T15:55:47;18.10;1.00
20284;DHT22;10301;50.832;4.080;2023-05-03T15:58:13;18.10;1.00
20284;DHT22;10301;50.832;4.080;2023-05-03T16:00:38;18.10;1.00
20284;DHT22;10301;50.832;4.080;2023-05-03T16:03:04;18.00;1.00
20284;DHT22;10301;50.832;4.080;2023-05-03T16:05:30;18.00;1.00
20284;DHT22;10301;50.832;4.080;2023-05-03T16:07:56;18.20;1.00
20284;DHT22;10301;50.832;4.080;2023-05-03T16:10:22;18.40;1.00